Time;durP1;ratioP1;P1;durP2;ratioP2;P2;SDS_P1;SDS_P2;PMS_P1;PMS_P2;Temp;Humidity;BMP_temperature;BMP_pressure;BME280_temperature;BME280_humidity;BME280_pressure;Samples;Min_cycle;Max_cycle;Signal;HPM_P1;HPM_P2
2023/10/31 00:00:00;;;;;;;;;1.67;1.67;;;;;12.04;76.00;99669.47;5037658;28;45516;-73
2023/10/31 00:02:25;;;;;;;;;1.00;1.00;;;;;11.52;75.86;99586.56;5037159;28;46625;-74
2023/10/31 00:04:51;;;;;;;;;2.67;1.00;;;;;11.66;75.84;99603.75;5037056;28;45494;-71
2023/10/31 00:07:17;;;;;;;;;4.00;2.00;;;;;12.08;76.35;99668.53;5036314;28;46199;-74
2023/10/31 00:09:43;;;;;;;;;3.33;1.33;;;;;12.12;76.29;99683.28;5030549;28;45493;-71
2023/10/31 00:12:08;;;;;;;;;3.00;1.00;;;;;11.95;76.57;99657.41;5028681;28;45527;-74
2023/10/31 00:14:34;;;;;;;;;1.00;1.00;;;;;11.94;76.29;99655.69;5032597;28;45469;-75
2023/10/31 00:17:00;;;;;;;;;0.67;0.67;;;;;12.06;75.86;99676.41;5044257;28;46859;-73
2023/10/31 00:19:25;;;;;;;;;1.00;1.00;;;;;11.92;76.00;99662.72;5029197;28;45524;-73
2023/10/31 00:21:51;;;;;;;;;1.33;1.33;;;;;12.00;75.96;99689.66;5032916;28;46787;-75
2023/10/31 00:24:17;;;;;;;;;1.33;1.00;;;;;11.44;76.37;99582.34;5033415;28;45758;-74
2023/10/31 00:26:42;;;;;;;;;3.00;1.67;;;;;11.40;76.60;99593.78;5036738;28;45373;-75
2023/10/31 00:29:08;;;;;;;;;2.33;2.00;;;;;11.70;76.36;99629.91;5035792;28;45546;-74
2023/10/31 00:31:34;;;;;;;;;2.00;1.00;;;;;11.91;76.23;99673.25;5035739;28;45509;-75
2023/10/31 00:34:01;;;;;;;;;3.00;1.00;;;;;11.83;77.20;99648.00;5036313;28;45633;-75
2023/10/31 00:36:27;;;;;;;;;3.00;1.00;;;;;11.63;76.76;99605.59;5033217;28;45574;-73
2023/10/31 00:38:53;;;;;;;;;1.00;1.00;;;;;11.91;76.27;99650.47;5025722;28;45530;-75
2023/10/31 00:41:18;;;;;;;;;0.00;0.00;;;;;12.06;76.43;99673.78;5048588;28;45539;-75
2023/10/31 00:43:44;;;;;;;;;3.00;1.67;;;;;11.96;76.64;99658.25;5042721;28;45646;-75
2023/10/31 00:46:09;;;;;;;;;2.00;1.00;;;;;11.91;76.53;99662.75;5037016;28;46629;-74
2023/10/31 00:48:36;;;;;;;;;1.00;1.00;;;;;11.95;76.67;99683.66;5034940;28;45521;-73
2023/10/31 00:51:04;;;;;;;;;4.33;1.33;;;;;11.29;76.25;99582.63;5027946;28;45427;-74
2023/10/31 00:53:31;;;;;;;;;2.33;2.00;;;;;11.84;76.48;99683.84;5034563;28;45567;-74
2023/10/31 00:55:57;;;;;;;;;0.00;0.00;;;;;11.83;76.56;99683.88;5034046;28;46602;-74
2023/10/31 00:58:22;;;;;;;;;1.33;1.00;;;;;11.80;76.87;99704.91;5030448;28;45453;-74
2023/10/31 01:00:48;;;;;;;;;2.67;1.00;;;;;11.19;77.11;99602.91;5037229;28;45763;-72
2023/10/31 01:03:14;;;;;;;;;2.67;2.00;;;;;11.38;76.92;99629.66;5038281;28;45547;-74
2023/10/31 01:05:39;;;;;;;;;2.67;2.67;;;;;11.03;77.34;99593.59;5036215;28;46849;-74
2023/10/31 01:08:05;;;;;;;;;3.00;2.67;;;;;11.66;76.88;99710.44;5037747;28;45817;-74
2023/10/31 01:10:31;;;;;;;;;2.33;2.00;;;;;11.22;76.84;99626.47;5034769;28;45550;-74
2023/10/31 01:12:56;;;;;;;;;1.33;1.33;;;;;11.28;76.83;99643.81;5036754;28;45589;-74
2023/10/31 01:15:22;;;;;;;;;3.33;1.33;;;;;11.42;77.25;99678.53;5035387;28;46086;-74
2023/10/31 01:17:47;;;;;;;;;1.33;1.33;;;;;11.62;77.23;99706.13;5036467;28;45458;-75
2023/10/31 01:20:13;;;;;;;;;2.00;2.00;;;;;11.25;76.69;99655.22;5035051;28;45702;-75
2023/10/31 01:22:39;;;;;;;;;3.33;2.00;;;;;11.61;76.85;99700.03;5035571;28;45512;-75
2023/10/31 01:25:05;;;;;;;;;2.00;1.00;;;;;11.23;77.32;99657.00;5036152;28;45889;-74
2023/10/31 01:27:30;;;;;;;;;1.67;1.67;;;;;10.69;77.23;99586.34;5035462;28;45508;-74
2023/10/31 01:29:56;;;;;;;;;5.67;2.00;;;;;11.42;77.45;99703.88;5034433;28;45827;-73
2023/10/31 01:32:22;;;;;;;;;2.00;2.00;;;;;10.89;78.05;99619.19;5035491;28;45456;-74
2023/10/31 01:34:47;;;;;;;;;5.00;4.00;;;;;10.90;78.02;99645.38;5036380;28;46090;-73
2023/10/31 01:37:14;;;;;;;;;2.33;2.00;;;;;10.63;77.67;99624.84;5035573;28;45606;-73
2023/10/31 01:39:40;;;;;;;;;2.33;2.00;;;;;11.12;77.91;99721.84;5031076;28;45602;-73
2023/10/31 01:42:06;;;;;;;;;4.67;3.00;;;;;10.58;78.39;99633.66;5035754;28;45563;-73
2023/10/31 01:44:31;;;;;;;;;2.00;2.00;;;;;10.94;78.26;99698.56;5035066;28;46144;-73
2023/10/31 01:46:57;;;;;;;;;4.33;3.33;;;;;11.09;78.59;99715.81;5036887;28;45792;-75
2023/10/31 01:49:23;;;;;;;;;3.00;2.33;;;;;11.06;78.63;99716.72;5035635;28;45452;-73
2023/10/31 01:51:49;;;;;;;;;2.67;2.00;;;;;10.63;78.65;99665.00;5036076;28;45298;-74
2023/10/31 01:54:15;;;;;;;;;2.67;2.33;;;;;10.59;78.83;99672.03;5034806;28;46663;-73
2023/10/31 01:56:42;;;;;;;;;3.00;3.00;;;;;10.75;79.17;99705.88;5035510;28;45367;-73
2023/10/31 01:59:08;;;;;;;;;4.67;2.00;;;;;11.01;79.19;99729.03;5032586;28;45453;-76
2023/10/31 02:01:39;;;;;;;;;8.33;4.00;;;;;10.91;78.89;99736.16;5028906;28;45600;-72
2023/10/31 02:04:05;;;;;;;;;3.00;3.00;;;;;10.51;79.17;99691.34;5034499;28;47692;-74
2023/10/31 02:06:30;;;;;;;;;4.00;2.33;;;;;10.38;79.20;99664.50;5034504;28;45482;-74
2023/10/31 02:08:57;;;;;;;;;4.00;3.33;;;;;10.32;79.53;99665.47;5035925;28;45559;-73
2023/10/31 02:11:22;;;;;;;;;4.67;4.67;;;;;10.75;79.67;99721.59;5035149;28;45859;-72
2023/10/31 02:13:51;;;;;;;;;4.00;3.00;;;;;10.78;79.58;99717.16;5036934;28;45444;-74
2023/10/31 02:16:17;;;;;;;;;5.00;2.33;;;;;10.84;79.42;99713.56;5039233;28;45421;-73
2023/10/31 02:18:43;;;;;;;;;3.00;3.00;;;;;10.92;79.38;99723.94;5038266;28;44835;-73
2023/10/31 02:21:08;;;;;;;;;3.00;2.33;;;;;10.56;78.74;99656.38;5038059;28;45364;-73
2023/10/31 02:23:34;;;;;;;;;4.00;3.00;;;;;11.17;79.28;99753.22;5036206;28;47783;-74
2023/10/31 02:25:59;;;;;;;;;4.33;2.33;;;;;11.24;78.95;99750.47;5036818;28;46027;-75
2023/10/31 02:28:27;;;;;;;;;2.33;2.33;;;;;10.77;78.85;99668.28;5053469;28;45340;-74
2023/10/31 02:30:54;;;;;;;;;3.33;3.00;;;;;10.84;78.33;99674.25;5037346;28;46217;-74
2023/10/31 02:33:20;;;;;;;;;6.00;3.00;;;;;11.30;78.45;99746.03;5052481;28;47832;-73
2023/10/31 02:35:45;;;;;;;;;5.33;5.00;;;;;10.56;78.70;99642.44;5036600;28;45329;-75
2023/10/31 02:38:11;;;;;;;;;8.00;5.67;;;;;11.01;79.06;99698.47;5039127;28;45280;-73
2023/10/31 02:40:36;;;;;;;;;4.67;4.67;;;;;11.40;79.04;99771.19;5022935;28;45347;-73
2023/10/31 02:43:02;;;;;;;;;5.00;5.00;;;;;10.51;78.57;99608.47;5037321;28;45346;-73
2023/10/31 02:45:31;;;;;;;;;6.33;5.00;;;;;11.12;78.99;99724.47;5025284;28;45658;-73
2023/10/31 02:47:56;;;;;;;;;5.67;4.67;;;;;10.83;79.19;99673.41;5018619;28;45517;-74
2023/10/31 02:50:22;;;;;;;;;5.33;4.00;;;;;11.46;79.26;99758.00;5030542;28;45465;-72
2023/10/31 02:52:47;;;;;;;;;6.00;4.33;;;;;11.22;79.22;99712.97;5024114;28;46237;-73
2023/10/31 02:55:13;;;;;;;;;9.00;4.33;;;;;11.21;79.11;99721.69;5028520;28;45427;-73
2023/10/31 02:57:39;;;;;;;;;5.33;5.33;;;;;11.42;78.91;99733.56;5028253;28;45528;-73
2023/10/31 03:00:05;;;;;;;;;4.67;4.00;;;;;11.12;79.23;99674.69;5030924;28;45476;-73
2023/10/31 03:02:30;;;;;;;;;5.00;5.00;;;;;11.07;79.11;99679.13;5034713;28;45337;-74
2023/10/31 03:04:56;;;;;;;;;8.00;5.33;;;;;11.34;79.31;99732.84;5038354;28;45508;-71
2023/10/31 03:07:21;;;;;;;;;5.00;5.00;;;;;11.02;79.27;99662.63;5037247;28;45726;-73
2023/10/31 03:09:47;;;;;;;;;7.33;4.00;;;;;11.61;79.45;99755.09;5032065;28;45361;-73
2023/10/31 03:12:13;;;;;;;;;6.00;5.00;;;;;11.67;79.26;99756.72;5028604;28;45562;-74
2023/10/31 03:14:38;;;;;;;;;5.33;3.67;;;;;11.29;79.35;99711.06;5029053;28;45461;-74
2023/10/31 03:17:04;;;;;;;;;3.67;3.00;;;;;11.36;79.67;99732.81;5033075;28;45387;-74
2023/10/31 03:19:29;;;;;;;;;4.33;4.33;;;;;10.57;79.54;99591.78;5035963;28;45419;-73
2023/10/31 03:21:55;;;;;;;;;4.33;4.33;;;;;11.48;79.46;99740.47;5033598;28;46288;-73
2023/10/31 03:24:20;;;;;;;;;6.67;5.67;;;;;11.56;80.00;99780.53;5022211;28;45529;-73
2023/10/31 03:26:46;;;;;;;;;5.67;5.67;;;;;11.31;79.78;99732.03;5031350;28;45406;-73
2023/10/31 03:29:11;;;;;;;;;7.67;5.33;;;;;11.44;80.03;99758.00;5016428;28;45567;-73
2023/10/31 03:31:37;;;;;;;;;7.33;4.33;;;;;11.24;80.16;99745.22;5037448;28;46691;-73
2023/10/31 03:34:03;;;;;;;;;9.67;7.00;;;;;11.55;80.57;99794.53;5037415;28;45453;-72
2023/10/31 03:36:28;;;;;;;;;5.33;4.33;;;;;11.59;80.21;99792.72;5039256;28;45373;-73
2023/10/31 03:38:54;;;;;;;;;5.33;4.67;;;;;10.70;80.36;99637.84;5037949;28;45446;-74
2023/10/31 03:41:19;;;;;;;;;6.67;5.00;;;;;11.00;80.02;99685.38;5049970;28;46855;-73
2023/10/31 03:43:45;;;;;;;;;10.33;5.33;;;;;11.51;80.97;99782.38;5030435;28;45481;-74
2023/10/31 03:46:11;;;;;;;;;8.33;5.67;;;;;11.50;80.41;99764.03;5036316;28;45351;-73
2023/10/31 03:48:37;;;;;;;;;8.67;5.00;;;;;11.46;80.58;99747.50;5036859;28;45447;-73
2023/10/31 03:51:02;;;;;;;;;12.33;5.00;;;;;11.65;80.67;99785.63;5032715;28;45263;-74
2023/10/31 03:53:28;;;;;;;;;8.33;6.00;;;;;11.71;80.64;99784.66;5025944;28;45438;-73
2023/10/31 03:55:54;;;;;;;;;6.00;4.00;;;;;11.67;80.41;99777.72;5050198;28;45623;-73
2023/10/31 03:58:19;;;;;;;;;5.00;4.67;;;;;11.58;80.39;99762.13;5037335;28;45458;-74
2023/10/31 04:00:47;;;;;;;;;6.33;6.00;;;;;11.51;80.92;99750.91;5036027;28;46461;-73
2023/10/31 04:03:13;;;;;;;;;5.00;4.00;;;;;11.67;80.54;99788.22;5031546;28;45423;-74
2023/10/31 04:05:38;;;;;;;;;7.00;6.00;;;;;11.45;80.90;99772.00;5028359;28;45434;-74
2023/10/31 04:08:04;;;;;;;;;5.67;5.00;;;;;11.04;80.93;99714.13;5034961;28;45431;-73
2023/10/31 04:10:29;;;;;;;;;4.33;3.67;;;;;11.42;80.65;99770.28;5037105;28;46298;-74
2023/10/31 04:12:55;;;;;;;;;6.67;4.00;;;;;11.68;80.95;99813.56;5036534;28;45545;-74
2023/10/31 04:15:20;;;;;;;;;6.67;4.00;;;;;11.71;80.73;99813.50;5037059;28;45391;-75
2023/10/31 04:17:46;;;;;;;;;7.33;3.67;;;;;11.06;80.94;99729.81;5038086;28;45346;-73
2023/10/31 04:20:12;;;;;;;;;4.00;4.00;;;;;11.31;81.10;99751.25;5051321;28;46674;-73
2023/10/31 04:22:37;;;;;;;;;4.67;4.33;;;;;11.72;80.75;99812.63;5037376;28;45356;-73
2023/10/31 04:25:04;;;;;;;;;4.00;4.00;;;;;11.49;80.74;99765.81;5033914;28;45504;-73
2023/10/31 04:27:30;;;;;;;;;4.00;3.00;;;;;11.50;81.00;99796.38;5025066;28;45473;-72
2023/10/31 04:29:55;;;;;;;;;4.00;3.00;;;;;11.35;80.73;99758.16;5048295;28;47369;-74
2023/10/31 04:32:21;;;;;;;;;6.67;4.33;;;;;11.22;80.83;99733.94;5036107;28;45326;-73
2023/10/31 04:34:47;;;;;;;;;6.33;4.33;;;;;11.60;80.83;99797.06;5052417;28;45498;-74
2023/10/31 04:37:12;;;;;;;;;4.33;4.00;;;;;11.54;81.50;99791.94;5036922;28;45364;-75
2023/10/31 04:39:39;;;;;;;;;4.33;4.00;;;;;11.53;81.40;99798.06;5037717;28;45336;-76
2023/10/31 04:42:06;;;;;;;;;5.67;3.67;;;;;11.10;81.91;99728.88;5038565;28;45333;-74
2023/10/31 04:44:32;;;;;;;;;6.67;4.33;;;;;11.64;82.08;99825.84;5036209;28;45549;-75
2023/10/31 04:46:58;;;;;;;;;3.00;3.00;;;;;11.45;81.98;99790.34;5041063;28;45260;-74
2023/10/31 04:49:24;;;;;;;;;3.00;3.00;;;;;11.78;81.46;99837.88;5041458;28;45563;-74
2023/10/31 04:51:50;;;;;;;;;7.00;3.67;;;;;11.38;81.70;99776.47;5039638;28;45309;-74
2023/10/31 04:54:16;;;;;;;;;4.00;2.00;;;;;11.81;81.33;99829.94;5040133;28;45306;-74
2023/10/31 04:56:42;;;;;;;;;2.00;2.00;;;;;11.51;81.18;99782.38;5041507;28;46019;-76
2023/10/31 04:59:07;;;;;;;;;5.33;3.33;;;;;11.91;81.43;99841.16;5039526;28;45522;-75
2023/10/31 05:01:33;;;;;;;;;2.00;2.00;;;;;11.92;80.68;99856.03;5051516;28;45430;-74
2023/10/31 05:03:58;;;;;;;;;4.33;4.33;;;;;11.94;81.40;99846.38;5034058;28;45774;-74
2023/10/31 05:06:24;;;;;;;;;5.33;2.67;;;;;11.77;81.49;99826.53;5041582;28;45380;-74
2023/10/31 05:08:49;;;;;;;;;3.33;3.00;;;;;11.42;81.62;99758.94;5041976;28;46202;-74
2023/10/31 05:11:19;;;;;;;;;5.00;3.33;;;;;12.03;81.15;99867.19;5057633;28;45369;-75
2023/10/31 05:13:45;;;;;;;;;6.33;4.67;;;;;11.76;80.91;99803.78;5041084;28;45374;-74
2023/10/31 05:16:11;;;;;;;;;4.67;3.33;;;;;12.09;81.11;99862.69;5040939;28;45468;-75
2023/10/31 05:18:38;;;;;;;;;7.00;4.00;;;;;11.62;81.57;99769.94;5041624;28;46529;-72
2023/10/31 05:21:05;;;;;;;;;4.33;3.33;;;;;11.97;81.14;99844.56;5039224;28;45545;-73
2023/10/31 05:23:31;;;;;;;;;4.67;4.67;;;;;12.05;82.45;99862.78;5040142;28;45567;-74
2023/10/31 05:25:56;;;;;;;;;3.67;3.33;;;;;11.87;81.57;99829.88;5031034;28;45437;-74
2023/10/31 05:28:23;;;;;;;;;6.67;3.33;;;;;12.09;81.38;99865.31;5049575;28;46702;-73
2023/10/31 05:30:49;;;;;;;;;7.67;4.33;;;;;11.40;81.33;99747.59;5040720;28;45484;-73
2023/10/31 05:33:18;;;;;;;;;6.33;5.33;;;;;11.61;81.25;99768.22;5054741;28;45267;-73
2023/10/31 05:35:43;;;;;;;;;7.67;3.00;;;;;12.02;81.65;99845.34;5028408;28;45389;-75
2023/10/31 05:38:09;;;;;;;;;8.67;7.33;;;;;12.00;82.41;99844.50;5039411;28;46166;-76
2023/10/31 05:40:37;;;;;;;;;12.00;8.33;;;;;11.39;83.00;99772.06;5038732;28;45235;-76
2023/10/31 05:43:03;;;;;;;;;6.00;6.00;;;;;11.25;83.39;99769.72;5038820;28;45419;-74
2023/10/31 05:45:29;;;;;;;;;6.33;6.00;;;;;11.11;83.65;99743.72;5038528;28;45449;-77
2023/10/31 05:47:55;;;;;;;;;9.33;5.33;;;;;11.97;83.30;99878.69;5038488;28;46288;-76
2023/10/31 05:50:21;;;;;;;;;8.67;6.33;;;;;11.78;82.97;99848.38;5038558;28;45432;-75
2023/10/31 05:52:47;;;;;;;;;9.67;6.00;;;;;11.98;83.30;99880.41;5038892;28;45323;-73
2023/10/31 05:55:13;;;;;;;;;9.67;7.33;;;;;11.51;82.90;99794.59;5055388;28;45323;-75
2023/10/31 05:57:39;;;;;;;;;7.00;5.67;;;;;11.76;83.05;99839.66;5037119;28;45539;-73
2023/10/31 06:00:05;;;;;;;;;5.33;5.33;;;;;11.81;83.35;99837.81;5050810;28;45503;-77
2023/10/31 06:02:31;;;;;;;;;5.67;5.00;;;;;12.05;82.80;99894.28;5036761;28;45386;-75
2023/10/31 06:04:56;;;;;;;;;5.67;4.33;;;;;12.08;83.48;99887.22;5040371;28;45615;-72
2023/10/31 06:07:22;;;;;;;;;4.33;4.33;;;;;12.05;83.32;99879.41;5038712;28;46455;-73
2023/10/31 06:09:47;;;;;;;;;10.00;3.33;;;;;11.87;83.61;99848.25;5038228;28;45408;-72
2023/10/31 06:12:13;;;;;;;;;4.67;4.67;;;;;12.07;83.01;99888.09;5038387;28;45555;-72
2023/10/31 06:14:38;;;;;;;;;4.33;4.33;;;;;11.74;83.23;99821.31;5038219;28;45172;-74
2023/10/31 06:17:04;;;;;;;;;6.67;4.33;;;;;11.81;83.27;99833.41;5038232;28;46077;-74
2023/10/31 06:19:34;;;;;;;;;5.67;5.00;;;;;11.72;83.10;99819.59;5036772;28;45313;-74
2023/10/31 06:21:59;;;;;;;;;4.00;4.00;;;;;12.02;82.76;99875.97;5053294;28;45583;-74
2023/10/31 06:24:25;;;;;;;;;2.67;2.67;;;;;11.62;83.05;99797.91;5038235;28;45468;-73
2023/10/31 06:26:50;;;;;;;;;6.00;3.00;;;;;11.72;82.26;99804.75;5024354;28;45598;-74
2023/10/31 06:29:16;;;;;;;;;2.33;2.33;;;;;11.89;82.63;99856.97;5038137;28;45547;-73
2023/10/31 06:31:41;;;;;;;;;4.00;4.00;;;;;11.50;82.28;99777.16;5052973;28;45379;-74
2023/10/31 06:34:07;;;;;;;;;2.00;2.00;;;;;12.19;82.16;99892.28;5037674;28;45527;-74
2023/10/31 06:36:33;;;;;;;;;5.00;4.00;;;;;12.23;82.24;99900.97;5035969;28;47481;-74
2023/10/31 06:38:59;;;;;;;;;6.33;4.00;;;;;12.26;81.89;99909.66;5037223;28;45854;-74
2023/10/31 06:41:25;;;;;;;;;5.67;4.33;;;;;12.29;81.68;99888.59;5037366;28;45405;-74
2023/10/31 06:43:50;;;;;;;;;5.00;3.33;;;;;11.77;81.67;99815.13;5038762;28;45460;-74
2023/10/31 06:46:16;;;;;;;;;6.33;5.33;;;;;12.11;82.11;99883.69;5037316;28;46546;-73
2023/10/31 06:48:42;;;;;;;;;7.33;5.33;;;;;11.82;82.00;99840.41;5038232;28;45431;-75
2023/10/31 06:51:07;;;;;;;;;5.33;4.00;;;;;12.33;82.03;99928.78;5038715;28;45385;-74
2023/10/31 06:53:33;;;;;;;;;4.00;4.00;;;;;12.35;81.88;99910.38;5038699;28;45362;-73
2023/10/31 06:55:58;;;;;;;;;4.67;3.00;;;;;11.74;81.54;99821.31;5038212;28;45558;-75
2023/10/31 06:58:24;;;;;;;;;3.00;2.67;;;;;11.68;81.27;99798.69;5038189;28;45474;-75
2023/10/31 07:00:49;;;;;;;;;5.00;3.67;;;;;12.11;81.36;99869.69;5052668;28;45411;-73
2023/10/31 07:03:16;;;;;;;;;3.00;3.00;;;;;12.28;80.97;99883.38;5049402;28;45367;-73
2023/10/31 07:05:42;;;;;;;;;2.00;2.00;;;;;11.93;80.86;99829.75;5032206;28;45549;-75
2023/10/31 07:08:07;;;;;;;;;6.33;4.00;;;;;12.48;81.00;99923.28;5036690;28;45307;-75
2023/10/31 07:10:33;;;;;;;;;6.33;3.33;;;;;12.38;80.59;99920.81;5024609;28;45463;-74
2023/10/31 07:12:59;;;;;;;;;5.67;3.33;;;;;12.34;80.80;99890.25;5036494;28;45480;-75
2023/10/31 07:15:25;;;;;;;;;3.67;2.33;;;;;12.35;80.10;99902.50;5037468;28;46201;-75
2023/10/31 07:17:51;;;;;;;;;4.00;2.00;;;;;12.37;80.62;99912.09;5037647;28;45882;-75
2023/10/31 07:20:17;;;;;;;;;2.67;2.33;;;;;11.92;80.53;99843.78;5038001;28;45829;-74
2023/10/31 07:22:43;;;;;;;;;2.67;2.00;;;;;12.06;79.72;99852.28;5052376;28;45403;-75
2023/10/31 07:25:09;;;;;;;;;3.67;3.67;;;;;12.42;79.66;99917.25;5034570;28;46091;-74
2023/10/31 07:27:35;;;;;;;;;3.33;3.00;;;;;12.24;79.41;99881.69;5025989;28;45448;-74
2023/10/31 07:30:03;;;;;;;;;4.00;3.33;;;;;12.59;79.74;99940.56;5051359;28;45398;-74
2023/10/31 07:32:29;;;;;;;;;3.33;3.00;;;;;12.54;79.47;99918.78;5039170;28;45389;-72
2023/10/31 07:34:55;;;;;;;;;3.33;2.67;;;;;11.92;79.96;99827.19;5036439;28;45417;-72
2023/10/31 07:37:20;;;;;;;;;3.67;2.33;;;;;12.71;79.30;99953.47;5036807;28;45250;-74
2023/10/31 07:39:46;;;;;;;;;4.33;2.67;;;;;12.61;79.19;99923.88;5037015;28;45251;-73
2023/10/31 07:42:11;;;;;;;;;3.00;3.00;;;;;12.77;79.20;99968.28;5036701;28;45388;-74
2023/10/31 07:44:37;;;;;;;;;3.67;2.00;;;;;12.28;78.78;99878.13;5036773;28;45567;-75
2023/10/31 07:47:02;;;;;;;;;6.00;4.00;;;;;12.82;78.95;99969.91;5036383;28;45416;-74
2023/10/31 07:49:28;;;;;;;;;3.00;3.00;;;;;12.70;78.24;99950.00;5037587;28;45436;-76
2023/10/31 07:51:53;;;;;;;;;3.67;3.00;;;;;12.65;78.45;99943.09;5038561;28;45377;-74
2023/10/31 07:54:19;;;;;;;;;3.67;3.33;;;;;12.83;78.71;99969.00;5037789;28;46051;-76
2023/10/31 07:56:44;;;;;;;;;3.00;2.00;;;;;12.58;78.42;99923.09;5036764;28;45461;-74
2023/10/31 07:59:10;;;;;;;;;5.00;2.33;;;;;12.87;78.54;99993.47;5036874;28;45495;-74
2023/10/31 08:01:36;;;;;;;;;3.00;1.67;;;;;11.82;78.11;99806.31;5037399;28;45384;-74
2023/10/31 08:04:02;;;;;;;;;2.33;1.67;;;;;12.73;78.37;99970.09;5036917;28;46153;-74
2023/10/31 08:06:28;;;;;;;;;3.33;3.00;;;;;12.75;78.24;99959.56;5036480;28;45514;-74
2023/10/31 08:08:53;;;;;;;;;2.00;1.67;;;;;12.90;78.08;99991.63;5037477;28;45536;-73
2023/10/31 08:11:19;;;;;;;;;2.67;2.00;;;;;12.42;77.62;99912.00;5052314;28;45477;-76
2023/10/31 08:13:44;;;;;;;;;2.00;2.00;;;;;12.65;78.21;99953.63;5036526;28;46057;-76
2023/10/31 08:16:10;;;;;;;;;2.00;2.00;;;;;12.83;77.80;99976.03;5035224;28;45483;-75
2023/10/31 08:18:35;;;;;;;;;4.67;2.33;;;;;12.62;77.58;99949.25;5036748;28;45440;-74
2023/10/31 08:21:03;;;;;;;;;3.00;2.33;;;;;12.19;77.53;99863.41;5055717;28;45509;-75
2023/10/31 08:23:29;;;;;;;;;2.00;2.00;;;;;12.85;77.06;99961.09;5041485;28;46184;-74
2023/10/31 08:25:55;;;;;;;;;1.00;1.00;;;;;13.02;77.41;99993.16;5032535;28;45592;-76
2023/10/31 08:28:21;;;;;;;;;3.33;1.33;;;;;13.06;77.24;99999.25;5036695;28;45535;-74
2023/10/31 08:30:47;;;;;;;;;2.00;2.00;;;;;13.08;77.01;99987.78;5041404;28;45392;-74
2023/10/31 08:33:13;;;;;;;;;2.00;2.00;;;;;13.12;76.89;99994.72;5040946;28;45666;-75
2023/10/31 08:35:39;;;;;;;;;2.00;2.00;;;;;12.98;77.00;99978.38;5040198;28;45445;-75
2023/10/31 08:38:04;;;;;;;;;4.33;4.00;;;;;12.95;76.94;99973.16;5039676;28;45472;-74
2023/10/31 08:40:30;;;;;;;;;2.33;2.00;;;;;13.15;76.12;100013.06;5039820;28;45481;-74
2023/10/31 08:42:56;;;;;;;;;3.00;3.00;;;;;13.20;76.57;100023.50;5040797;28;45702;-74
2023/10/31 08:45:22;;;;;;;;;7.67;5.33;;;;;12.72;76.62;99949.97;5040291;28;45492;-74
2023/10/31 08:47:48;;;;;;;;;5.00;4.00;;;;;12.89;76.44;99975.91;5039835;28;45302;-75
2023/10/31 08:50:14;;;;;;;;;3.00;3.00;;;;;13.25;76.04;100044.44;5055750;28;45338;-75
2023/10/31 08:52:40;;;;;;;;;2.00;2.00;;;;;13.22;76.20;100026.97;5055400;28;46739;-73
2023/10/31 08:55:06;;;;;;;;;1.00;1.00;;;;;13.32;75.33;100025.03;5039327;28;45702;-74
2023/10/31 08:57:33;;;;;;;;;5.33;2.00;;;;;12.79;75.51;99951.59;5039719;28;45328;-74
2023/10/31 08:59:59;;;;;;;;;1.33;0.33;;;;;12.88;75.44;99969.81;5038395;28;45533;-75
2023/10/31 09:02:25;;;;;;;;;2.00;2.00;;;;;12.90;74.94;99960.09;5039778;28;45459;-75
2023/10/31 09:04:50;;;;;;;;;3.00;1.33;;;;;13.29;75.46;100023.34;5039617;28;45302;-75
2023/10/31 09:07:16;;;;;;;;;2.00;2.00;;;;;13.10;75.15;99996.50;5039973;28;45613;-77
2023/10/31 09:09:42;;;;;;;;;4.00;2.00;;;;;13.04;75.44;99959.81;5039621;28;45469;-76
2023/10/31 09:12:07;;;;;;;;;4.00;2.00;;;;;13.52;75.32;100049.13;5041469;28;46691;-76
2023/10/31 09:14:34;;;;;;;;;3.00;3.00;;;;;13.51;74.88;100051.81;5040898;28;45512;-76
2023/10/31 09:17:02;;;;;;;;;3.00;1.67;;;;;13.39;75.12;100044.19;5040372;28;45435;-77
2023/10/31 09:19:28;;;;;;;;;4.33;2.67;;;;;13.39;75.06;100042.41;5040825;28;45460;-78
2023/10/31 09:21:55;;;;;;;;;2.67;2.67;;;;;13.51;75.19;100068.47;5041525;28;45432;-76
2023/10/31 09:24:20;;;;;;;;;2.67;2.67;;;;;13.40;75.41;100046.78;5039538;28;45391;-78
2023/10/31 09:26:46;;;;;;;;;1.67;1.00;;;;;13.40;75.10;100067.81;5026489;28;45527;-74
2023/10/31 09:29:11;;;;;;;;;4.00;2.00;;;;;13.52;75.49;100074.59;5040593;28;45389;-77
2023/10/31 09:31:37;;;;;;;;;2.00;2.00;;;;;13.56;74.73;100076.28;5038345;28;45973;-75
2023/10/31 09:34:03;;;;;;;;;2.67;2.67;;;;;13.42;75.15;100062.53;5037690;28;45529;-73
2023/10/31 09:36:32;;;;;;;;;2.67;2.00;;;;;13.19;75.58;100027.00;5039610;28;45469;-74
2023/10/31 09:38:57;;;;;;;;;4.67;2.00;;;;;13.43;75.00;100067.78;5039424;28;45480;-74
2023/10/31 09:41:23;;;;;;;;;1.67;0.00;;;;;13.21;74.99;100034.88;5035615;28;46140;-74
2023/10/31 09:43:50;;;;;;;;;2.33;2.00;;;;;13.56;75.12;100105.22;5028129;28;45767;-73
2023/10/31 09:46:16;;;;;;;;;4.33;2.67;;;;;13.16;74.83;100029.69;5018792;28;45355;-74
2023/10/31 09:48:43;;;;;;;;;3.00;2.00;;;;;13.53;74.84;100116.66;5027645;28;45374;-74
2023/10/31 09:51:11;;;;;;;;;3.00;1.00;;;;;13.10;74.80;100038.59;5018597;28;46621;-74
2023/10/31 09:53:41;;;;;;;;;2.00;2.00;;;;;13.53;75.24;100106.13;5017292;28;45603;-74
2023/10/31 09:56:07;;;;;;;;;7.00;2.33;;;;;13.19;74.83;100062.94;5019732;28;45327;-73
2023/10/31 09:58:33;;;;;;;;;3.33;2.00;;;;;13.48;75.40;100094.84;5026251;28;45402;-72
2023/10/31 10:00:59;;;;;;;;;3.33;1.33;;;;;13.56;75.03;100102.56;5018152;28;45491;-73
2023/10/31 10:03:24;;;;;;;;;4.00;2.00;;;;;13.42;74.24;100089.69;5036456;28;45539;-71
2023/10/31 10:05:50;;;;;;;;;1.67;1.67;;;;;13.80;74.55;100132.78;5035542;28;45554;-72
2023/10/31 10:08:16;;;;;;;;;5.00;1.67;;;;;13.29;73.82;100052.25;5022171;28;45546;-72
2023/10/31 10:10:42;;;;;;;;;1.00;1.00;;;;;13.90;73.29;100139.56;5033635;28;47145;-73
2023/10/31 10:13:08;;;;;;;;;3.00;2.00;;;;;13.73;72.90;100079.41;5018607;28;45165;-72
2023/10/31 10:15:52;;;;;;;;;2.00;2.00;;;;;13.83;72.31;100081.84;5028234;28;45446;-72
2023/10/31 10:18:39;;;;;;;;;5.00;3.00;;;;;14.03;72.14;100113.00;5019905;28;45481;-67
2023/10/31 10:21:07;;;;;;;;;4.00;2.67;;;;;14.26;72.19;100133.53;5021305;28;45948;-72
2023/10/31 10:23:33;;;;;;;;;3.00;2.00;;;;;15.31;69.89;100134.50;5020219;28;45449;-68
2023/10/31 10:26:03;;;;;;;;;1.33;1.33;;;;;16.46;66.39;100126.72;5023843;28;45283;-69
2023/10/31 10:28:33;;;;;;;;;2.67;2.00;;;;;18.31;60.42;100091.03;5031483;28;45508;-70
2023/10/31 10:30:59;;;;;;;;;2.00;2.00;;;;;19.31;57.68;100078.88;5034727;28;45570;-68
2023/10/31 10:33:24;;;;;;;;;3.33;2.33;;;;;18.99;57.12;100102.41;5035558;28;45341;-68
2023/10/31 10:35:50;;;;;;;;;2.00;2.00;;;;;18.73;56.95;100104.31;5025291;28;45399;-68
2023/10/31 10:38:17;;;;;;;;;3.67;1.00;;;;;19.72;56.39;100121.31;5023504;28;45420;-74
2023/10/31 10:40:46;;;;;;;;;3.00;3.00;;;;;21.69;50.85;100108.03;5032931;28;45275;-70
2023/10/31 10:43:25;;;;;;;;;1.00;1.00;;;;;20.45;52.76;100138.28;5025622;28;45454;-66
2023/10/31 10:45:58;;;;;;;;;3.33;1.00;;;;;20.00;52.40;100142.19;5025739;28;45517;-71
2023/10/31 10:48:28;;;;;;;;;4.67;2.00;;;;;19.26;55.30;100142.81;5022626;28;45532;-69
2023/10/31 10:51:06;;;;;;;;;1.33;1.33;;;;;18.67;57.07;100139.03;5018304;28;45541;-72
2023/10/31 10:53:57;;;;;;;;;1.33;1.33;;;;;18.21;57.97;100136.47;5017522;28;45493;-69
2023/10/31 10:56:34;;;;;;;;;2.67;1.00;;;;;17.72;58.91;100151.53;5029786;28;45505;-66
2023/10/31 10:59:30;;;;;;;;;1.33;1.33;;;;;17.34;60.27;100164.34;5029471;28;45496;-66
2023/10/31 11:02:00;;;;;;;;;2.00;1.00;;;;;16.27;60.67;100028.66;5025699;28;46469;-66
2023/10/31 11:04:26;;;;;;;;;1.00;1.00;;;;;16.72;61.27;100131.16;5021768;28;45508;-66
2023/10/31 11:06:52;;;;;;;;;2.67;2.00;;;;;16.68;61.25;100141.88;5034165;28;45464;-66
2023/10/31 11:09:21;;;;;;;;;1.00;1.00;;;;;16.70;61.81;100169.13;5031283;28;45450;-66
2023/10/31 11:11:49;;;;;;;;;2.00;2.00;;;;;16.83;61.75;100165.22;5024388;28;45500;-65
2023/10/31 11:14:17;;;;;;;;;1.00;1.00;;;;;17.73;58.94;100145.31;5030196;28;45527;-67
2023/10/31 11:16:52;;;;;;;;;3.00;1.33;;;;;17.57;58.75;100130.91;5020848;28;45445;-66
2023/10/31 11:19:19;;;;;;;;;3.00;1.00;;;;;17.82;58.43;100151.22;5017232;28;45338;-67
2023/10/31 11:22:02;;;;;;;;;3.00;2.00;;;;;17.56;58.50;100150.38;5024411;28;46283;-65
2023/10/31 11:24:38;;;;;;;;;3.00;2.00;;;;;18.36;57.43;100140.28;5026846;28;45564;-67
2023/10/31 11:27:06;;;;;;;;;1.67;1.67;;;;;20.95;51.95;100157.13;5033640;28;45566;-67